PWSweather.com
Personal Weather Stations
Station Observations
KCTHAMDEN
Dunbar Hill, Hamden, CT 06514

Dunbar HillHamden, CT 06514

Lat: 41.365437, Lon: -72.956532

Elevation: 200

Station Type: Davis Vantage Pro2+

www.hamdenweather.com

High Low Average
Temperature 45.1°F7.3°C 25.7°F-3.5°C 36.6°F2.6°C
Dew Point 30.9°F-0.6°C 21.9°F-5.6°C 27.0°F-2.8°C
Winds 7.4 mph 11.9 kmh Calm Calm 1.0 mph ESE1.6 kmh ESE
Wind Gusts 12.0 mph19.3 kmh -- 2.0 mph3.2 kmh
Humidity 87% 52% 69%
Pressure 30.10 in1019.3 mb 29.76 in1007.8 mb -
Precipitation 0.00 in0.0 mm - -
Hour Temp Dew Point Humidity Winds Wind Gusts Pressure Precip Precip Rate Daily Precip Total
12:00 AM 29.7°F-1.3°C 23.0°F-5.0°C 76% Calm Calm -- 30.09 in1019.0 mb - 0.00 in0.0 mm 0.00 in0.0 mm
12:15 AM 29.2°F-1.6°C 23.2°F-4.9°C 78% Calm Calm -- 30.09 in1019.0 mb - 0.00 in0.0 mm 0.00 in0.0 mm
12:30 AM 28.8°F-1.8°C 23.1°F-4.9°C 79% Calm Calm -- 30.10 in1019.3 mb - 0.00 in0.0 mm 0.00 in0.0 mm
12:45 AM 28.3°F-2.1°C 23.2°F-4.9°C 81% Calm Calm -- 30.10 in1019.3 mb - 0.00 in0.0 mm 0.00 in0.0 mm
01:00 AM 28.0°F-2.2°C 23.2°F-4.9°C 82% Calm Calm -- 30.10 in1019.3 mb - 0.00 in0.0 mm 0.00 in0.0 mm
01:15 AM 27.7°F-2.4°C 23.2°F-4.9°C 83% Calm Calm -- 30.10 in1019.3 mb - 0.00 in0.0 mm 0.00 in0.0 mm
01:30 AM 27.4°F-2.6°C 22.9°F-5.1°C 83% Calm Calm -- 30.10 in1019.3 mb - 0.00 in0.0 mm 0.00 in0.0 mm
01:45 AM 27.2°F-2.7°C 23.0°F-5.0°C 84% Calm Calm -- 30.09 in1019.0 mb - 0.00 in0.0 mm 0.00 in0.0 mm
02:00 AM 27.0°F-2.8°C 22.8°F-5.1°C 84% Calm Calm -- 30.09 in1019.0 mb - 0.00 in0.0 mm 0.00 in0.0 mm
02:15 AM 27.4°F-2.6°C 23.2°F-4.9°C 84% Calm Calm -- 30.08 in1018.6 mb - 0.00 in0.0 mm 0.00 in0.0 mm
02:30 AM 27.7°F-2.4°C 22.9°F-5.1°C 82% Calm Calm -- 30.07 in1018.3 mb - 0.00 in0.0 mm 0.00 in0.0 mm
02:45 AM 27.5°F-2.5°C 23.0°F-5.0°C 83% Calm Calm -- 30.07 in1018.3 mb - 0.00 in0.0 mm 0.00 in0.0 mm
03:00 AM 27.4°F-2.6°C 22.9°F-5.1°C 83% Calm Calm -- 30.07 in1018.3 mb - 0.00 in0.0 mm 0.00 in0.0 mm
03:15 AM 27.1°F-2.7°C 22.7°F-5.2°C 83% Calm Calm -- 30.06 in1017.9 mb - 0.00 in0.0 mm 0.00 in0.0 mm
03:30 AM 26.8°F-2.9°C 22.3°F-5.4°C 83% Calm Calm -- 30.06 in1017.9 mb - 0.00 in0.0 mm 0.00 in0.0 mm
03:45 AM 26.5°F-3.1°C 22.3°F-5.4°C 84% Calm Calm -- 30.05 in1017.6 mb - 0.00 in0.0 mm 0.00 in0.0 mm
04:00 AM 26.1°F-3.3°C 22.0°F-5.6°C 84% Calm Calm -- 30.05 in1017.6 mb - 0.00 in0.0 mm 0.00 in0.0 mm
04:15 AM 25.8°F-3.4°C 21.9°F-5.6°C 85% Calm Calm -- 30.04 in1017.3 mb - 0.00 in0.0 mm 0.00 in0.0 mm
04:30 AM 25.7°F-3.5°C 22.1°F-5.5°C 86% Calm Calm -- 30.04 in1017.3 mb - 0.00 in0.0 mm 0.00 in0.0 mm
04:45 AM 26.0°F-3.3°C 22.7°F-5.2°C 87% Calm Calm -- 30.04 in1017.3 mb - 0.00 in0.0 mm 0.00 in0.0 mm
05:00 AM 26.4°F-3.1°C 23.1°F-4.9°C 87% Calm Calm -- 30.04 in1017.3 mb - 0.00 in0.0 mm 0.00 in0.0 mm
05:15 AM 26.6°F-3.0°C 22.9°F-5.1°C 86% Calm Calm -- 30.04 in1017.3 mb - 0.00 in0.0 mm 0.00 in0.0 mm
05:30 AM 27.0°F-2.8°C 23.1°F-4.9°C 85% Calm Calm -- 30.04 in1017.3 mb - 0.00 in0.0 mm 0.00 in0.0 mm
05:45 AM 27.8°F-2.3°C 23.6°F-4.7°C 84% Calm Calm -- 30.04 in1017.3 mb - 0.00 in0.0 mm 0.00 in0.0 mm
06:00 AM 28.4°F-2.0°C 23.6°F-4.7°C 82% Calm Calm -- 30.05 in1017.6 mb - 0.00 in0.0 mm 0.00 in0.0 mm
06:15 AM 28.8°F-1.8°C 23.7°F-4.6°C 81% Calm Calm -- 30.05 in1017.6 mb - 0.00 in0.0 mm 0.00 in0.0 mm
06:30 AM 29.1°F-1.6°C 23.7°F-4.6°C 80% Calm Calm -- 30.05 in1017.6 mb - 0.00 in0.0 mm 0.00 in0.0 mm
06:45 AM 29.2°F-1.6°C 23.8°F-4.6°C 80% Calm Calm -- 30.05 in1017.6 mb - 0.00 in0.0 mm 0.00 in0.0 mm
07:00 AM 29.7°F-1.3°C 24.3°F-4.3°C 80% Calm Calm -- 30.05 in1017.6 mb - 0.00 in0.0 mm 0.00 in0.0 mm
07:15 AM 30.9°F-0.6°C 24.9°F-3.9°C 78% 0.2 mph NE0.3 kmh NE -- 30.06 in1017.9 mb - 0.00 in0.0 mm 0.00 in0.0 mm
07:30 AM 32.3°F0.2°C 25.9°F-3.4°C 77% 0.4 mph ENE0.6 kmh ENE 3.0 mph4.8 kmh 30.06 in1017.9 mb - 0.00 in0.0 mm 0.00 in0.0 mm
07:45 AM 33.7°F0.9°C 25.6°F-3.6°C 72% 0.8 mph WSW1.3 kmh WSW 3.0 mph4.8 kmh 30.06 in1017.9 mb - 0.00 in0.0 mm 0.00 in0.0 mm
08:00 AM 34.6°F1.4°C 25.8°F-3.4°C 70% 0.4 mph NE0.6 kmh NE 3.0 mph4.8 kmh 30.05 in1017.6 mb - 0.00 in0.0 mm 0.00 in0.0 mm
08:15 AM 35.1°F1.7°C 26.7°F-2.9°C 71% Calm Calm -- 30.05 in1017.6 mb - 0.00 in0.0 mm 0.00 in0.0 mm
08:30 AM 36.1°F2.3°C 26.2°F-3.2°C 67% 3.4 mph ENE5.5 kmh ENE 8.0 mph12.9 kmh 30.05 in1017.6 mb - 0.00 in0.0 mm 0.00 in0.0 mm
08:45 AM 37.0°F2.8°C 26.3°F-3.2°C 65% 0.5 mph NNW0.8 kmh NNW 2.0 mph3.2 kmh 30.05 in1017.6 mb - 0.00 in0.0 mm 0.00 in0.0 mm
09:00 AM 37.5°F3.1°C 27.2°F-2.7°C 66% 0.3 mph NNE0.5 kmh NNE 5.0 mph8.0 kmh 30.05 in1017.6 mb - 0.00 in0.0 mm 0.00 in0.0 mm
09:15 AM 38.5°F3.6°C 27.4°F-2.6°C 64% 0.3 mph NNE0.5 kmh NNE 9.0 mph14.5 kmh 30.05 in1017.6 mb - 0.00 in0.0 mm 0.00 in0.0 mm
09:30 AM 39.2°F4.0°C 28.0°F-2.2°C 64% 1.7 mph NE2.7 kmh NE 6.0 mph9.7 kmh 30.04 in1017.3 mb - 0.00 in0.0 mm 0.00 in0.0 mm
09:45 AM 40.2°F4.6°C 27.0°F-2.8°C 59% Calm Calm 1.0 mph1.6 kmh 30.04 in1017.3 mb - 0.00 in0.0 mm 0.00 in0.0 mm
10:00 AM 40.8°F4.9°C 27.6°F-2.4°C 59% 5.1 mph NE8.2 kmh NE 8.0 mph12.9 kmh 30.04 in1017.3 mb - 0.00 in0.0 mm 0.00 in0.0 mm
10:15 AM 41.5°F5.3°C 27.4°F-2.6°C 57% 1.3 mph E2.1 kmh E 4.0 mph6.4 kmh 30.03 in1016.9 mb - 0.00 in0.0 mm 0.00 in0.0 mm
10:30 AM 42.2°F5.7°C 27.6°F-2.4°C 56% Calm Calm -- 30.03 in1016.9 mb - 0.00 in0.0 mm 0.00 in0.0 mm
10:45 AM 43.1°F6.2°C 27.1°F-2.7°C 53% 2.4 mph NE3.9 kmh NE 8.0 mph12.9 kmh 30.02 in1016.6 mb - 0.00 in0.0 mm 0.00 in0.0 mm
11:00 AM 43.4°F6.3°C 27.8°F-2.3°C 54% 0.1 mph ENE0.2 kmh ENE 4.0 mph6.4 kmh 30.00 in1015.9 mb - 0.00 in0.0 mm 0.00 in0.0 mm
11:15 AM 44.2°F6.8°C 29.0°F-1.7°C 55% 2.0 mph WSW3.2 kmh WSW 4.0 mph6.4 kmh 30.00 in1015.9 mb - 0.00 in0.0 mm 0.00 in0.0 mm
11:30 AM 44.5°F6.9°C 28.0°F-2.2°C 52% 1.4 mph ESE2.3 kmh ESE 10.0 mph16.1 kmh 29.99 in1015.6 mb - 0.00 in0.0 mm 0.00 in0.0 mm
11:45 AM 44.3°F6.8°C 27.8°F-2.3°C 52% 0.6 mph NE1.0 kmh NE 2.0 mph3.2 kmh 29.99 in1015.6 mb - 0.00 in0.0 mm 0.00 in0.0 mm
12:00 PM 44.4°F6.9°C 28.8°F-1.8°C 54% 0.1 mph ENE0.2 kmh ENE 3.0 mph4.8 kmh 29.99 in1015.6 mb - 0.00 in0.0 mm 0.00 in0.0 mm
12:15 PM 45.1°F7.3°C 28.5°F-1.9°C 52% 0.4 mph E0.6 kmh E 3.0 mph4.8 kmh 29.98 in1015.2 mb - 0.00 in0.0 mm 0.00 in0.0 mm
12:30 PM 44.3°F6.8°C 28.2°F-2.1°C 53% 3.0 mph ESE4.8 kmh ESE -- 29.98 in1015.2 mb - 0.00 in0.0 mm 0.00 in0.0 mm
12:45 PM 43.7°F6.5°C 28.2°F-2.1°C 54% 4.9 mph E7.9 kmh E 9.0 mph14.5 kmh 29.96 in1014.6 mb - 0.00 in0.0 mm 0.00 in0.0 mm
01:00 PM 43.8°F6.6°C 29.1°F-1.6°C 56% 0.2 mph NE0.3 kmh NE -- 29.95 in1014.2 mb - 0.00 in0.0 mm 0.00 in0.0 mm
01:15 PM 44.2°F6.8°C 29.0°F-1.7°C 55% 1.7 mph E2.7 kmh E 6.0 mph9.7 kmh 29.95 in1014.2 mb - 0.00 in0.0 mm 0.00 in0.0 mm
01:30 PM 44.2°F6.8°C 29.9°F-1.2°C 57% 7.3 mph ESE11.7 kmh ESE 11.0 mph17.7 kmh 29.94 in1013.9 mb - 0.00 in0.0 mm 0.00 in0.0 mm
01:45 PM 43.9°F6.6°C 30.1°F-1.1°C 58% 0.6 mph E1.0 kmh E 12.0 mph19.3 kmh 29.94 in1013.9 mb - 0.00 in0.0 mm 0.00 in0.0 mm
02:00 PM 43.5°F6.4°C 30.1°F-1.1°C 59% 0.9 mph NE1.4 kmh NE 3.0 mph4.8 kmh 29.94 in1013.9 mb - 0.00 in0.0 mm 0.00 in0.0 mm
02:15 PM 43.2°F6.2°C 29.8°F-1.2°C 59% Calm Calm -- 29.93 in1013.5 mb - 0.00 in0.0 mm 0.00 in0.0 mm
02:30 PM 42.8°F6.0°C 29.4°F-1.4°C 59% 1.9 mph ESE3.1 kmh ESE -- 29.93 in1013.5 mb - 0.00 in0.0 mm 0.00 in0.0 mm
02:45 PM 43.0°F6.1°C 30.4°F-0.9°C 61% Calm Calm -- 29.93 in1013.5 mb - 0.00 in0.0 mm 0.00 in0.0 mm
03:00 PM 43.6°F6.4°C 30.2°F-1.0°C 59% Calm Calm -- 29.93 in1013.5 mb - 0.00 in0.0 mm 0.00 in0.0 mm
03:15 PM 43.4°F6.3°C 30.4°F-0.9°C 60% Calm Calm -- 29.92 in1013.2 mb - 0.00 in0.0 mm 0.00 in0.0 mm
03:30 PM 43.6°F6.4°C 29.3°F-1.5°C 57% 0.1 mph E0.2 kmh E 3.0 mph4.8 kmh 29.91 in1012.9 mb - 0.00 in0.0 mm 0.00 in0.0 mm
03:45 PM 43.3°F6.3°C 29.5°F-1.4°C 58% 2.0 mph E3.2 kmh E 8.0 mph12.9 kmh 29.91 in1012.9 mb - 0.00 in0.0 mm 0.00 in0.0 mm
04:00 PM 43.2°F6.2°C 29.4°F-1.4°C 58% 1.2 mph ESE1.9 kmh ESE 2.0 mph3.2 kmh 29.91 in1012.9 mb - 0.00 in0.0 mm 0.00 in0.0 mm
04:15 PM 42.9°F6.1°C 29.2°F-1.6°C 58% 1.6 mph E2.6 kmh E 4.0 mph6.4 kmh 29.91 in1012.9 mb - 0.00 in0.0 mm 0.00 in0.0 mm
04:30 PM 42.6°F5.9°C 29.7°F-1.3°C 60% Calm Calm -- 29.91 in1012.9 mb - 0.00 in0.0 mm 0.00 in0.0 mm
04:45 PM 42.2°F5.7°C 30.1°F-1.1°C 62% Calm Calm -- 29.90 in1012.5 mb - 0.00 in0.0 mm 0.00 in0.0 mm
05:00 PM 41.8°F5.4°C 30.9°F-0.6°C 65% Calm Calm -- 29.90 in1012.5 mb - 0.00 in0.0 mm 0.00 in0.0 mm
05:15 PM 41.4°F5.2°C 30.9°F-0.6°C 66% Calm Calm -- 29.89 in1012.2 mb - 0.00 in0.0 mm 0.00 in0.0 mm
05:30 PM 41.1°F5.1°C 30.6°F-0.8°C 66% Calm Calm -- 29.88 in1011.9 mb - 0.00 in0.0 mm 0.00 in0.0 mm
05:45 PM 40.9°F4.9°C 30.4°F-0.9°C 66% Calm Calm -- 29.88 in1011.9 mb - 0.00 in0.0 mm 0.00 in0.0 mm
06:00 PM 40.7°F4.8°C 30.6°F-0.8°C 67% Calm Calm -- 29.87 in1011.5 mb - 0.00 in0.0 mm 0.00 in0.0 mm
06:15 PM 40.5°F4.7°C 30.0°F-1.1°C 66% 0.2 mph NE0.3 kmh NE 1.0 mph1.6 kmh 29.87 in1011.5 mb - 0.00 in0.0 mm 0.00 in0.0 mm
06:30 PM 40.5°F4.7°C 29.3°F-1.5°C 64% Calm Calm -- 29.87 in1011.5 mb - 0.00 in0.0 mm 0.00 in0.0 mm
06:45 PM 40.8°F4.9°C 29.6°F-1.3°C 64% Calm Calm -- 29.88 in1011.9 mb - 0.00 in0.0 mm 0.00 in0.0 mm
07:00 PM 40.7°F4.8°C 29.5°F-1.4°C 64% 0.4 mph NNE0.6 kmh NNE 6.0 mph9.7 kmh 29.87 in1011.5 mb - 0.00 in0.0 mm 0.00 in0.0 mm
07:15 PM 40.6°F4.8°C 29.4°F-1.4°C 64% 1.9 mph NNE3.1 kmh NNE 10.0 mph16.1 kmh 29.87 in1011.5 mb - 0.00 in0.0 mm 0.00 in0.0 mm
07:30 PM 40.5°F4.7°C 29.2°F-1.6°C 64% 3.3 mph NE5.3 kmh NE 9.0 mph14.5 kmh 29.87 in1011.5 mb - 0.00 in0.0 mm 0.00 in0.0 mm
07:45 PM 40.3°F4.6°C 29.1°F-1.6°C 64% Calm Calm -- 29.87 in1011.5 mb - 0.00 in0.0 mm 0.00 in0.0 mm
08:00 PM 40.1°F4.5°C 29.6°F-1.3°C 66% 2.6 mph NE4.2 kmh NE 4.0 mph6.4 kmh 29.86 in1011.2 mb - 0.00 in0.0 mm 0.00 in0.0 mm
08:15 PM 39.7°F4.3°C 30.0°F-1.1°C 68% 0.1 mph N0.2 kmh N 1.0 mph1.6 kmh 29.86 in1011.2 mb - 0.00 in0.0 mm 0.00 in0.0 mm
08:30 PM 39.5°F4.2°C 29.8°F-1.2°C 68% 1.8 mph WSW2.9 kmh WSW 4.0 mph6.4 kmh 29.85 in1010.8 mb - 0.00 in0.0 mm 0.00 in0.0 mm
08:45 PM 39.3°F4.1°C 28.9°F-1.7°C 66% Calm Calm -- 29.84 in1010.5 mb - 0.00 in0.0 mm 0.00 in0.0 mm
09:00 PM 39.1°F3.9°C 29.1°F-1.6°C 67% Calm Calm 1.0 mph1.6 kmh 29.83 in1010.2 mb - 0.00 in0.0 mm 0.00 in0.0 mm
09:15 PM 38.9°F3.8°C 28.9°F-1.7°C 67% 2.7 mph NE4.3 kmh NE 12.0 mph19.3 kmh 29.82 in1009.8 mb - 0.00 in0.0 mm 0.00 in0.0 mm
09:30 PM 38.7°F3.7°C 28.7°F-1.8°C 67% 2.3 mph WSW3.7 kmh WSW 5.0 mph8.0 kmh 29.82 in1009.8 mb - 0.00 in0.0 mm 0.00 in0.0 mm
09:45 PM 38.5°F3.6°C 28.5°F-1.9°C 67% 1.8 mph NNE2.9 kmh NNE -- 29.82 in1009.8 mb - 0.00 in0.0 mm 0.00 in0.0 mm
10:00 PM 38.3°F3.5°C 28.3°F-2.1°C 67% 3.9 mph ENE6.3 kmh ENE 1.0 mph1.6 kmh 29.82 in1009.8 mb - 0.00 in0.0 mm 0.00 in0.0 mm
10:15 PM 38.2°F3.4°C 28.5°F-1.9°C 68% 1.8 mph NNE2.9 kmh NNE 1.0 mph1.6 kmh 29.80 in1009.1 mb - 0.00 in0.0 mm 0.00 in0.0 mm
10:30 PM 38.0°F3.3°C 28.7°F-1.8°C 69% Calm Calm -- 29.80 in1009.1 mb - 0.00 in0.0 mm 0.00 in0.0 mm
10:45 PM 37.8°F3.2°C 28.9°F-1.7°C 70% 2.4 mph N3.9 kmh N 6.0 mph9.7 kmh 29.79 in1008.8 mb - 0.00 in0.0 mm 0.00 in0.0 mm
11:00 PM 37.7°F3.2°C 29.1°F-1.6°C 71% 3.2 mph NE5.1 kmh NE 9.0 mph14.5 kmh 29.79 in1008.8 mb - 0.00 in0.0 mm 0.00 in0.0 mm
11:15 PM 37.5°F3.1°C 29.3°F-1.5°C 72% 0.7 mph N1.1 kmh N 8.0 mph12.9 kmh 29.78 in1008.5 mb - 0.00 in0.0 mm 0.00 in0.0 mm
11:30 PM 37.4°F3.0°C 29.5°F-1.4°C 73% 1.3 mph ENE2.1 kmh ENE 7.0 mph11.3 kmh 29.77 in1008.1 mb - 0.00 in0.0 mm 0.00 in0.0 mm
11:45 PM 36.8°F2.7°C 30.6°F-0.8°C 78% 7.4 mph N11.9 kmh N 9.0 mph14.5 kmh 29.76 in1007.8 mb - 0.00 in0.0 mm 0.00 in0.0 mm